sensor_id;sensor_type;location;lat;lon;timestamp;P1;durP1;ratioP1;P2;durP2;ratioP2
34924;SDS011;21130;51.728;8.748;2022-12-16T00:01:07;30.00;;;17.35;;
34924;SDS011;21130;51.728;8.748;2022-12-16T00:03:35;29.77;;;17.33;;
34924;SDS011;21130;51.728;8.748;2022-12-16T00:06:02;25.20;;;17.17;;
34924;SDS011;21130;51.728;8.748;2022-12-16T00:08:30;29.85;;;17.77;;
34924;SDS011;21130;51.728;8.748;2022-12-16T00:10:58;26.13;;;17.48;;
34924;SDS011;21130;51.728;8.748;2022-12-16T00:13:27;26.05;;;16.08;;
34924;SDS011;21130;51.728;8.748;2022-12-16T00:15:54;28.33;;;16.73;;
34924;SDS011;21130;51.728;8.748;2022-12-16T00:18:21;26.02;;;15.55;;
34924;SDS011;21130;51.728;8.748;2022-12-16T00:20:48;27.55;;;16.25;;
34924;SDS011;21130;51.728;8.748;2022-12-16T00:23:17;26.10;;;17.10;;
34924;SDS011;21130;51.728;8.748;2022-12-16T00:25:44;23.63;;;16.08;;
34924;SDS011;21130;51.728;8.748;2022-12-16T00:28:12;24.88;;;16.52;;
34924;SDS011;21130;51.728;8.748;2022-12-16T00:30:41;26.85;;;16.13;;
34924;SDS011;21130;51.728;8.748;2022-12-16T00:33:09;26.08;;;16.42;;
34924;SDS011;21130;51.728;8.748;2022-12-16T00:35:37;26.25;;;15.70;;
34924;SDS011;21130;51.728;8.748;2022-12-16T00:38:03;27.30;;;16.25;;
34924;SDS011;21130;51.728;8.748;2022-12-16T00:40:30;23.52;;;15.57;;
34924;SDS011;21130;51.728;8.748;2022-12-16T00:42:56;25.65;;;16.10;;
34924;SDS011;21130;51.728;8.748;2022-12-16T00:45:23;25.55;;;15.85;;
34924;SDS011;21130;51.728;8.748;2022-12-16T00:47:50;25.20;;;15.60;;
34924;SDS011;21130;51.728;8.748;2022-12-16T00:50:17;25.80;;;16.80;;
34924;SDS011;21130;51.728;8.748;2022-12-16T00:52:44;24.13;;;16.10;;
34924;SDS011;21130;51.728;8.748;2022-12-16T00:55:12;26.65;;;17.02;;
34924;SDS011;21130;51.728;8.748;2022-12-16T00:57:39;29.35;;;16.73;;
34924;SDS011;21130;51.728;8.748;2022-12-16T01:00:07;23.30;;;15.20;;
34924;SDS011;21130;51.728;8.748;2022-12-16T01:02:37;23.80;;;15.60;;
34924;SDS011;21130;51.728;8.748;2022-12-16T01:05:05;26.13;;;16.17;;
34924;SDS011;21130;51.728;8.748;2022-12-16T01:07:32;26.75;;;16.52;;
34924;SDS011;21130;51.728;8.748;2022-12-16T01:09:59;22.98;;;14.93;;
34924;SDS011;21130;51.728;8.748;2022-12-16T01:22:47;23.05;;;15.13;;
34924;SDS011;21130;51.728;8.748;2022-12-16T01:25:13;25.20;;;15.35;;
34924;SDS011;21130;51.728;8.748;2022-12-16T01:27:41;26.50;;;15.55;;
34924;SDS011;21130;51.728;8.748;2022-12-16T01:30:09;26.75;;;16.00;;
34924;SDS011;21130;51.728;8.748;2022-12-16T01:32:38;22.45;;;14.05;;
34924;SDS011;21130;51.728;8.748;2022-12-16T01:35:05;23.15;;;14.35;;
34924;SDS011;21130;51.728;8.748;2022-12-16T01:37:34;21.73;;;14.35;;
34924;SDS011;21130;51.728;8.748;2022-12-16T01:40:02;22.05;;;14.02;;
34924;SDS011;21130;51.728;8.748;2022-12-16T01:42:28;23.73;;;14.73;;
34924;SDS011;21130;51.728;8.748;2022-12-16T01:47:54;24.85;;;14.38;;
34924;SDS011;21130;51.728;8.748;2022-12-16T01:50:24;26.00;;;14.38;;
34924;SDS011;21130;51.728;8.748;2022-12-16T01:52:52;22.60;;;14.02;;
34924;SDS011;21130;51.728;8.748;2022-12-16T01:55:24;23.48;;;14.48;;
34924;SDS011;21130;51.728;8.748;2022-12-16T01:57:55;17.00;;;12.38;;
34924;SDS011;21130;51.728;8.748;2022-12-16T02:00:28;23.33;;;13.90;;
34924;SDS011;21130;51.728;8.748;2022-12-16T02:02:54;21.00;;;13.85;;
34924;SDS011;21130;51.728;8.748;2022-12-16T02:05:23;22.40;;;13.77;;
34924;SDS011;21130;51.728;8.748;2022-12-16T02:07:52;22.30;;;14.13;;
34924;SDS011;21130;51.728;8.748;2022-12-16T02:10:26;26.00;;;15.23;;
34924;SDS011;21130;51.728;8.748;2022-12-16T02:13:01;25.27;;;13.63;;
34924;SDS011;21130;51.728;8.748;2022-12-16T02:15:39;22.85;;;13.43;;
34924;SDS011;21130;51.728;8.748;2022-12-16T02:18:09;28.40;;;15.20;;
34924;SDS011;21130;51.728;8.748;2022-12-16T02:20:56;26.58;;;14.95;;
34924;SDS011;21130;51.728;8.748;2022-12-16T02:23:41;24.83;;;14.38;;
34924;SDS011;21130;51.728;8.748;2022-12-16T02:26:27;23.23;;;13.77;;
34924;SDS011;21130;51.728;8.748;2022-12-16T02:29:23;23.50;;;14.30;;
34924;SDS011;21130;51.728;8.748;2022-12-16T02:32:04;24.75;;;14.00;;
34924;SDS011;21130;51.728;8.748;2022-12-16T02:34:40;22.75;;;13.48;;
34924;SDS011;21130;51.728;8.748;2022-12-16T02:37:16;24.73;;;14.65;;
34924;SDS011;21130;51.728;8.748;2022-12-16T02:39:54;19.55;;;12.75;;
34924;SDS011;21130;51.728;8.748;2022-12-16T02:42:25;19.65;;;13.02;;
34924;SDS011;21130;51.728;8.748;2022-12-16T02:44:57;23.00;;;12.77;;
34924;SDS011;21130;51.728;8.748;2022-12-16T02:47:29;20.85;;;12.55;;
34924;SDS011;21130;51.728;8.748;2022-12-16T02:49:57;22.77;;;12.50;;
34924;SDS011;21130;51.728;8.748;2022-12-16T02:52:25;17.63;;;11.57;;
34924;SDS011;21130;51.728;8.748;2022-12-16T02:54:54;21.60;;;12.35;;
34924;SDS011;21130;51.728;8.748;2022-12-16T02:57:33;20.50;;;11.95;;
34924;SDS011;21130;51.728;8.748;2022-12-16T03:00:12;19.48;;;11.52;;
34924;SDS011;21130;51.728;8.748;2022-12-16T03:02:46;19.77;;;12.93;;
34924;SDS011;21130;51.728;8.748;2022-12-16T03:05:19;21.55;;;12.70;;
34924;SDS011;21130;51.728;8.748;2022-12-16T03:07:50;21.50;;;13.27;;
34924;SDS011;21130;51.728;8.748;2022-12-16T03:10:20;22.70;;;13.40;;
34924;SDS011;21130;51.728;8.748;2022-12-16T03:12:51;23.17;;;12.45;;
34924;SDS011;21130;51.728;8.748;2022-12-16T03:15:20;22.08;;;12.38;;
34924;SDS011;21130;51.728;8.748;2022-12-16T03:17:53;18.38;;;12.77;;
34924;SDS011;21130;51.728;8.748;2022-12-16T03:20:23;24.30;;;14.23;;
34924;SDS011;21130;51.728;8.748;2022-12-16T03:22:53;21.45;;;12.85;;
34924;SDS011;21130;51.728;8.748;2022-12-16T03:25:24;21.83;;;11.25;;
34924;SDS011;21130;51.728;8.748;2022-12-16T03:27:55;17.20;;;11.30;;
34924;SDS011;21130;51.728;8.748;2022-12-16T03:30:27;20.20;;;12.10;;
34924;SDS011;21130;51.728;8.748;2022-12-16T03:33:00;19.60;;;12.85;;
34924;SDS011;21130;51.728;8.748;2022-12-16T03:35:33;22.88;;;12.88;;
34924;SDS011;21130;51.728;8.748;2022-12-16T03:38:03;19.52;;;11.40;;
34924;SDS011;21130;51.728;8.748;2022-12-16T03:40:32;21.45;;;12.57;;
34924;SDS011;21130;51.728;8.748;2022-12-16T03:43:00;21.45;;;12.27;;
34924;SDS011;21130;51.728;8.748;2022-12-16T03:45:29;18.02;;;11.35;;
34924;SDS011;21130;51.728;8.748;2022-12-16T03:48:04;17.05;;;11.75;;
34924;SDS011;21130;51.728;8.748;2022-12-16T03:50:32;17.30;;;10.57;;
34924;SDS011;21130;51.728;8.748;2022-12-16T03:53:00;18.20;;;11.00;;
34924;SDS011;21130;51.728;8.748;2022-12-16T03:55:27;17.55;;;11.80;;
34924;SDS011;21130;51.728;8.748;2022-12-16T03:57:53;22.67;;;12.55;;
34924;SDS011;21130;51.728;8.748;2022-12-16T04:00:21;21.20;;;11.75;;
34924;SDS011;21130;51.728;8.748;2022-12-16T04:02:50;21.45;;;11.27;;
34924;SDS011;21130;51.728;8.748;2022-12-16T04:05:18;21.30;;;11.98;;
34924;SDS011;21130;51.728;8.748;2022-12-16T04:07:45;18.80;;;10.80;;
34924;SDS011;21130;51.728;8.748;2022-12-16T04:10:11;14.85;;;10.50;;
34924;SDS011;21130;51.728;8.748;2022-12-16T04:12:38;19.00;;;11.02;;
34924;SDS011;21130;51.728;8.748;2022-12-16T04:15:22;17.40;;;10.75;;
34924;SDS011;21130;51.728;8.748;2022-12-16T04:18:07;18.45;;;10.68;;
34924;SDS011;21130;51.728;8.748;2022-12-16T04:20:58;23.35;;;11.95;;
34924;SDS011;21130;51.728;8.748;2022-12-16T04:23:45;21.00;;;13.27;;
34924;SDS011;21130;51.728;8.748;2022-12-16T04:26:31;21.42;;;13.35;;
34924;SDS011;21130;51.728;8.748;2022-12-16T04:29:20;20.65;;;13.02;;
34924;SDS011;21130;51.728;8.748;2022-12-16T04:31:46;24.95;;;13.85;;
34924;SDS011;21130;51.728;8.748;2022-12-16T04:34:13;20.15;;;13.45;;
34924;SDS011;21130;51.728;8.748;2022-12-16T04:36:52;21.88;;;13.48;;
34924;SDS011;21130;51.728;8.748;2022-12-16T04:39:37;17.90;;;11.65;;
34924;SDS011;21130;51.728;8.748;2022-12-16T04:42:21;23.15;;;12.07;;
34924;SDS011;21130;51.728;8.748;2022-12-16T04:45:05;21.77;;;13.57;;
34924;SDS011;21130;51.728;8.748;2022-12-16T04:47:51;24.45;;;13.23;;
34924;SDS011;21130;51.728;8.748;2022-12-16T04:50:36;20.98;;;13.00;;
34924;SDS011;21130;51.728;8.748;2022-12-16T04:53:21;18.98;;;12.50;;
34924;SDS011;21130;51.728;8.748;2022-12-16T04:56:06;20.15;;;13.13;;
34924;SDS011;21130;51.728;8.748;2022-12-16T04:58:50;21.70;;;12.25;;
34924;SDS011;21130;51.728;8.748;2022-12-16T05:01:34;21.30;;;12.00;;
34924;SDS011;21130;51.728;8.748;2022-12-16T05:04:19;19.88;;;12.07;;
34924;SDS011;21130;51.728;8.748;2022-12-16T05:07:04;20.42;;;11.48;;
34924;SDS011;21130;51.728;8.748;2022-12-16T05:09:49;16.67;;;10.88;;
34924;SDS011;21130;51.728;8.748;2022-12-16T05:12:33;17.45;;;10.77;;
34924;SDS011;21130;51.728;8.748;2022-12-16T05:15:17;17.83;;;10.70;;
34924;SDS011;21130;51.728;8.748;2022-12-16T05:18:06;15.55;;;9.23;;
34924;SDS011;21130;51.728;8.748;2022-12-16T05:20:51;15.35;;;9.70;;
34924;SDS011;21130;51.728;8.748;2022-12-16T05:23:35;16.40;;;10.38;;
34924;SDS011;21130;51.728;8.748;2022-12-16T05:26:21;13.40;;;8.43;;
34924;SDS011;21130;51.728;8.748;2022-12-16T05:29:04;13.55;;;8.68;;
34924;SDS011;21130;51.728;8.748;2022-12-16T05:31:49;15.68;;;9.32;;
34924;SDS011;21130;51.728;8.748;2022-12-16T05:34:33;13.93;;;8.85;;
34924;SDS011;21130;51.728;8.748;2022-12-16T05:37:17;16.48;;;9.77;;
34924;SDS011;21130;51.728;8.748;2022-12-16T05:40:13;17.67;;;9.95;;
34924;SDS011;21130;51.728;8.748;2022-12-16T05:42:59;18.27;;;10.32;;
34924;SDS011;21130;51.728;8.748;2022-12-16T05:45:43;13.90;;;8.27;;
34924;SDS011;21130;51.728;8.748;2022-12-16T05:48:27;12.82;;;7.97;;
34924;SDS011;21130;51.728;8.748;2022-12-16T05:51:11;15.38;;;8.50;;
34924;SDS011;21130;51.728;8.748;2022-12-16T05:53:56;12.35;;;8.40;;
34924;SDS011;21130;51.728;8.748;2022-12-16T05:56:40;14.90;;;8.60;;
34924;SDS011;21130;51.728;8.748;2022-12-16T05:59:26;12.30;;;8.32;;
34924;SDS011;21130;51.728;8.748;2022-12-16T06:02:10;13.77;;;8.38;;
34924;SDS011;21130;51.728;8.748;2022-12-16T06:04:54;15.48;;;9.35;;
34924;SDS011;21130;51.728;8.748;2022-12-16T06:07:38;11.52;;;8.00;;
34924;SDS011;21130;51.728;8.748;2022-12-16T06:10:22;12.45;;;7.97;;
34924;SDS011;21130;51.728;8.748;2022-12-16T06:13:06;12.75;;;7.15;;
34924;SDS011;21130;51.728;8.748;2022-12-16T06:15:52;12.63;;;7.40;;
34924;SDS011;21130;51.728;8.748;2022-12-16T06:18:36;10.43;;;6.72;;
34924;SDS011;21130;51.728;8.748;2022-12-16T06:21:21;10.70;;;6.30;;
34924;SDS011;21130;51.728;8.748;2022-12-16T06:24:05;12.77;;;7.30;;
34924;SDS011;21130;51.728;8.748;2022-12-16T06:26:49;12.90;;;6.95;;
34924;SDS011;21130;51.728;8.748;2022-12-16T06:29:33;16.98;;;7.68;;
34924;SDS011;21130;51.728;8.748;2022-12-16T06:32:18;11.52;;;8.13;;
34924;SDS011;21130;51.728;8.748;2022-12-16T06:35:02;14.20;;;8.50;;
34924;SDS011;21130;51.728;8.748;2022-12-16T06:37:47;10.27;;;7.53;;
34924;SDS011;21130;51.728;8.748;2022-12-16T06:40:32;11.93;;;8.13;;
34924;SDS011;21130;51.728;8.748;2022-12-16T06:43:25;13.48;;;8.70;;
34924;SDS011;21130;51.728;8.748;2022-12-16T06:46:09;14.82;;;7.97;;
34924;SDS011;21130;51.728;8.748;2022-12-16T06:48:54;13.55;;;7.97;;
34924;SDS011;21130;51.728;8.748;2022-12-16T06:51:35;13.57;;;8.05;;
34924;SDS011;21130;51.728;8.748;2022-12-16T06:54:19;16.27;;;9.55;;
34924;SDS011;21130;51.728;8.748;2022-12-16T06:57:03;18.02;;;10.93;;
34924;SDS011;21130;51.728;8.748;2022-12-16T06:59:47;14.95;;;8.77;;
34924;SDS011;21130;51.728;8.748;2022-12-16T07:02:32;13.82;;;9.88;;
34924;SDS011;21130;51.728;8.748;2022-12-16T07:05:17;15.27;;;8.82;;
34924;SDS011;21130;51.728;8.748;2022-12-16T07:08:01;16.60;;;9.43;;
34924;SDS011;21130;51.728;8.748;2022-12-16T07:10:45;14.10;;;8.57;;
34924;SDS011;21130;51.728;8.748;2022-12-16T07:13:30;16.30;;;8.73;;
34924;SDS011;21130;51.728;8.748;2022-12-16T07:16:14;13.48;;;8.45;;
34924;SDS011;21130;51.728;8.748;2022-12-16T07:18:58;14.02;;;9.30;;
34924;SDS011;21130;51.728;8.748;2022-12-16T07:21:44;12.77;;;8.07;;
34924;SDS011;21130;51.728;8.748;2022-12-16T07:24:28;15.18;;;9.05;;
34924;SDS011;21130;51.728;8.748;2022-12-16T07:27:12;15.48;;;9.63;;
34924;SDS011;21130;51.728;8.748;2022-12-16T07:29:56;18.77;;;9.95;;
34924;SDS011;21130;51.728;8.748;2022-12-16T07:32:41;15.20;;;9.63;;
34924;SDS011;21130;51.728;8.748;2022-12-16T07:35:25;15.70;;;10.05;;
34924;SDS011;21130;51.728;8.748;2022-12-16T07:38:22;15.63;;;10.07;;
34924;SDS011;21130;51.728;8.748;2022-12-16T07:41:03;17.02;;;10.32;;
34924;SDS011;21130;51.728;8.748;2022-12-16T07:43:47;21.63;;;12.50;;
34924;SDS011;21130;51.728;8.748;2022-12-16T07:46:31;22.73;;;13.18;;
34924;SDS011;21130;51.728;8.748;2022-12-16T07:49:15;23.02;;;12.82;;
34924;SDS011;21130;51.728;8.748;2022-12-16T07:51:59;24.70;;;12.80;;
34924;SDS011;21130;51.728;8.748;2022-12-16T07:54:45;20.25;;;11.77;;
34924;SDS011;21130;51.728;8.748;2022-12-16T07:57:29;22.95;;;12.98;;
34924;SDS011;21130;51.728;8.748;2022-12-16T08:00:13;23.00;;;12.63;;
34924;SDS011;21130;51.728;8.748;2022-12-16T08:02:57;21.15;;;12.85;;
34924;SDS011;21130;51.728;8.748;2022-12-16T08:05:42;17.63;;;11.02;;
34924;SDS011;21130;51.728;8.748;2022-12-16T08:08:41;17.23;;;10.77;;
34924;SDS011;21130;51.728;8.748;2022-12-16T08:11:26;19.45;;;10.98;;
34924;SDS011;21130;51.728;8.748;2022-12-16T08:14:10;23.73;;;12.32;;
34924;SDS011;21130;51.728;8.748;2022-12-16T08:16:54;18.88;;;11.60;;
34924;SDS011;21130;51.728;8.748;2022-12-16T08:19:39;19.70;;;11.95;;
34924;SDS011;21130;51.728;8.748;2022-12-16T08:22:23;16.50;;;11.55;;
34924;SDS011;21130;51.728;8.748;2022-12-16T08:25:07;16.55;;;12.20;;
34924;SDS011;21130;51.728;8.748;2022-12-16T08:27:54;22.25;;;13.18;;
34924;SDS011;21130;51.728;8.748;2022-12-16T08:30:38;19.02;;;13.23;;
34924;SDS011;21130;51.728;8.748;2022-12-16T08:33:22;25.88;;;15.00;;
34924;SDS011;21130;51.728;8.748;2022-12-16T08:36:07;20.58;;;13.40;;
34924;SDS011;21130;51.728;8.748;2022-12-16T08:38:51;19.10;;;13.15;;
34924;SDS011;21130;51.728;8.748;2022-12-16T08:41:36;17.77;;;12.80;;
34924;SDS011;21130;51.728;8.748;2022-12-16T08:44:27;17.75;;;12.40;;
34924;SDS011;21130;51.728;8.748;2022-12-16T08:47:11;18.10;;;12.98;;
34924;SDS011;21130;51.728;8.748;2022-12-16T08:49:55;15.38;;;11.18;;
34924;SDS011;21130;51.728;8.748;2022-12-16T08:52:41;14.57;;;11.25;;
34924;SDS011;21130;51.728;8.748;2022-12-16T08:55:26;14.57;;;10.30;;
34924;SDS011;21130;51.728;8.748;2022-12-16T08:58:10;13.60;;;8.90;;
34924;SDS011;21130;51.728;8.748;2022-12-16T09:01:01;14.63;;;9.93;;
34924;SDS011;21130;51.728;8.748;2022-12-16T09:03:45;15.65;;;9.23;;
34924;SDS011;21130;51.728;8.748;2022-12-16T09:06:30;11.93;;;9.27;;
34924;SDS011;21130;51.728;8.748;2022-12-16T09:09:14;11.85;;;9.52;;
34924;SDS011;21130;51.728;8.748;2022-12-16T09:11:55;13.80;;;10.07;;
34924;SDS011;21130;51.728;8.748;2022-12-16T09:14:39;13.95;;;11.00;;
34924;SDS011;21130;51.728;8.748;2022-12-16T09:17:24;12.88;;;10.30;;
34924;SDS011;21130;51.728;8.748;2022-12-16T09:20:09;13.55;;;10.30;;
34924;SDS011;21130;51.728;8.748;2022-12-16T09:22:53;14.13;;;9.20;;
34924;SDS011;21130;51.728;8.748;2022-12-16T09:25:37;10.80;;;7.90;;
34924;SDS011;21130;51.728;8.748;2022-12-16T09:28:21;11.40;;;9.07;;
34924;SDS011;21130;51.728;8.748;2022-12-16T09:31:05;10.52;;;8.48;;
34924;SDS011;21130;51.728;8.748;2022-12-16T09:33:59;12.35;;;9.07;;
34924;SDS011;21130;51.728;8.748;2022-12-16T09:36:43;11.25;;;8.25;;
34924;SDS011;21130;51.728;8.748;2022-12-16T09:39:27;13.10;;;9.27;;
34924;SDS011;21130;51.728;8.748;2022-12-16T09:42:13;11.02;;;8.65;;
34924;SDS011;21130;51.728;8.748;2022-12-16T09:45:10;10.30;;;8.20;;
34924;SDS011;21130;51.728;8.748;2022-12-16T09:48:03;11.65;;;8.82;;
34924;SDS011;21130;51.728;8.748;2022-12-16T09:50:55;12.93;;;8.85;;
34924;SDS011;21130;51.728;8.748;2022-12-16T09:53:45;12.38;;;9.27;;
34924;SDS011;21130;51.728;8.748;2022-12-16T09:56:33;14.90;;;10.38;;
34924;SDS011;21130;51.728;8.748;2022-12-16T09:59:20;13.93;;;10.30;;
34924;SDS011;21130;51.728;8.748;2022-12-16T10:02:11;12.40;;;8.80;;
34924;SDS011;21130;51.728;8.748;2022-12-16T10:05:14;14.13;;;9.75;;
34924;SDS011;21130;51.728;8.748;2022-12-16T10:08:11;10.73;;;8.18;;
34924;SDS011;21130;51.728;8.748;2022-12-16T10:11:06;12.23;;;7.15;;
34924;SDS011;21130;51.728;8.748;2022-12-16T10:13:57;15.05;;;7.93;;
34924;SDS011;21130;51.728;8.748;2022-12-16T10:16:48;12.73;;;7.90;;
34924;SDS011;21130;51.728;8.748;2022-12-16T10:19:42;12.07;;;8.88;;
34924;SDS011;21130;51.728;8.748;2022-12-16T10:22:34;13.05;;;9.75;;
34924;SDS011;21130;51.728;8.748;2022-12-16T10:25:25;14.77;;;9.60;;
34924;SDS011;21130;51.728;8.748;2022-12-16T10:28:15;12.77;;;8.82;;
34924;SDS011;21130;51.728;8.748;2022-12-16T10:31:01;12.05;;;8.82;;
34924;SDS011;21130;51.728;8.748;2022-12-16T10:33:46;12.88;;;8.38;;
34924;SDS011;21130;51.728;8.748;2022-12-16T10:36:33;13.77;;;8.73;;
34924;SDS011;21130;51.728;8.748;2022-12-16T10:39:21;17.45;;;13.07;;
34924;SDS011;21130;51.728;8.748;2022-12-16T10:42:14;11.88;;;9.30;;
34924;SDS011;21130;51.728;8.748;2022-12-16T10:45:03;10.90;;;7.75;;
34924;SDS011;21130;51.728;8.748;2022-12-16T10:47:57;10.63;;;7.88;;
34924;SDS011;21130;51.728;8.748;2022-12-16T10:50:41;11.85;;;8.07;;
34924;SDS011;21130;51.728;8.748;2022-12-16T10:53:25;10.80;;;7.40;;
34924;SDS011;21130;51.728;8.748;2022-12-16T10:56:13;10.52;;;6.65;;
34924;SDS011;21130;51.728;8.748;2022-12-16T10:59:09;9.13;;;6.88;;
34924;SDS011;21130;51.728;8.748;2022-12-16T11:01:58;6.70;;;5.50;;
34924;SDS011;21130;51.728;8.748;2022-12-16T11:04:44;7.28;;;5.70;;
34924;SDS011;21130;51.728;8.748;2022-12-16T11:07:30;7.40;;;5.38;;
34924;SDS011;21130;51.728;8.748;2022-12-16T11:13:55;9.40;;;5.20;;
34924;SDS011;21130;51.728;8.748;2022-12-16T11:17:09;8.05;;;4.75;;
34924;SDS011;21130;51.728;8.748;2022-12-16T11:20:10;9.57;;;4.53;;
34924;SDS011;21130;51.728;8.748;2022-12-16T11:23:06;6.57;;;4.55;;
34924;SDS011;21130;51.728;8.748;2022-12-16T11:26:05;7.47;;;4.28;;
34924;SDS011;21130;51.728;8.748;2022-12-16T11:29:02;7.18;;;4.57;;
34924;SDS011;21130;51.728;8.748;2022-12-16T11:31:50;7.13;;;4.57;;
34924;SDS011;21130;51.728;8.748;2022-12-16T11:34:38;7.25;;;4.35;;
34924;SDS011;21130;51.728;8.748;2022-12-16T11:37:24;5.32;;;3.70;;
34924;SDS011;21130;51.728;8.748;2022-12-16T11:40:12;5.32;;;3.80;;
34924;SDS011;21130;51.728;8.748;2022-12-16T11:42:59;8.20;;;4.90;;
34924;SDS011;21130;51.728;8.748;2022-12-16T11:45:45;5.60;;;3.38;;
34924;SDS011;21130;51.728;8.748;2022-12-16T11:48:35;7.22;;;4.30;;
34924;SDS011;21130;51.728;8.748;2022-12-16T11:51:23;6.88;;;4.30;;
34924;SDS011;21130;51.728;8.748;2022-12-16T11:54:12;7.15;;;4.25;;
34924;SDS011;21130;51.728;8.748;2022-12-16T11:57:00;8.88;;;4.50;;
34924;SDS011;21130;51.728;8.748;2022-12-16T11:59:49;8.68;;;4.55;;
34924;SDS011;21130;51.728;8.748;2022-12-16T12:02:36;6.82;;;4.45;;
34924;SDS011;21130;51.728;8.748;2022-12-16T12:05:29;6.97;;;4.85;;
34924;SDS011;21130;51.728;8.748;2022-12-16T12:08:22;5.88;;;4.50;;
34924;SDS011;21130;51.728;8.748;2022-12-16T12:11:12;6.68;;;4.63;;
34924;SDS011;21130;51.728;8.748;2022-12-16T12:14:07;5.35;;;4.20;;
34924;SDS011;21130;51.728;8.748;2022-12-16T12:17:01;8.07;;;4.88;;
34924;SDS011;21130;51.728;8.748;2022-12-16T12:20:23;4.80;;;4.32;;
34924;SDS011;21130;51.728;8.748;2022-12-16T12:23:16;9.50;;;5.00;;
34924;SDS011;21130;51.728;8.748;2022-12-16T12:26:08;10.38;;;5.18;;
34924;SDS011;21130;51.728;8.748;2022-12-16T12:28:55;8.43;;;5.32;;
34924;SDS011;21130;51.728;8.748;2022-12-16T12:31:48;10.05;;;5.38;;
34924;SDS011;21130;51.728;8.748;2022-12-16T12:34:40;9.63;;;5.57;;
34924;SDS011;21130;51.728;8.748;2022-12-16T12:37:29;9.52;;;5.35;;
34924;SDS011;21130;51.728;8.748;2022-12-16T12:40:22;10.07;;;6.35;;
34924;SDS011;21130;51.728;8.748;2022-12-16T12:43:22;9.95;;;5.93;;
34924;SDS011;21130;51.728;8.748;2022-12-16T12:46:17;9.65;;;6.07;;
34924;SDS011;21130;51.728;8.748;2022-12-16T12:49:10;11.65;;;6.18;;
34924;SDS011;21130;51.728;8.748;2022-12-16T12:52:03;10.18;;;5.72;;
34924;SDS011;21130;51.728;8.748;2022-12-16T12:54:57;11.75;;;6.15;;
34924;SDS011;21130;51.728;8.748;2022-12-16T12:57:46;8.30;;;6.05;;
34924;SDS011;21130;51.728;8.748;2022-12-16T13:00:34;10.18;;;6.32;;
34924;SDS011;21130;51.728;8.748;2022-12-16T13:03:26;8.75;;;5.85;;
34924;SDS011;21130;51.728;8.748;2022-12-16T13:06:16;9.45;;;6.60;;
34924;SDS011;21130;51.728;8.748;2022-12-16T13:09:02;8.18;;;7.07;;
34924;SDS011;21130;51.728;8.748;2022-12-16T13:12:25;10.23;;;7.32;;
34924;SDS011;21130;51.728;8.748;2022-12-16T13:15:20;9.68;;;6.15;;
34924;SDS011;21130;51.728;8.748;2022-12-16T13:18:20;9.50;;;7.03;;
34924;SDS011;21130;51.728;8.748;2022-12-16T13:24:28;9.80;;;6.60;;
34924;SDS011;21130;51.728;8.748;2022-12-16T13:27:20;12.07;;;7.35;;
34924;SDS011;21130;51.728;8.748;2022-12-16T13:30:18;11.73;;;7.78;;
34924;SDS011;21130;51.728;8.748;2022-12-16T13:33:05;12.50;;;7.70;;
34924;SDS011;21130;51.728;8.748;2022-12-16T13:36:03;9.80;;;8.00;;
34924;SDS011;21130;51.728;8.748;2022-12-16T13:38:49;10.90;;;8.00;;
34924;SDS011;21130;51.728;8.748;2022-12-16T13:41:46;13.82;;;8.77;;
34924;SDS011;21130;51.728;8.748;2022-12-16T13:48:23;12.35;;;9.63;;
34924;SDS011;21130;51.728;8.748;2022-12-16T13:54:29;12.43;;;10.35;;
34924;SDS011;21130;51.728;8.748;2022-12-16T13:57:34;16.25;;;11.25;;
34924;SDS011;21130;51.728;8.748;2022-12-16T14:00:21;14.10;;;11.38;;
34924;SDS011;21130;51.728;8.748;2022-12-16T14:03:10;16.92;;;10.98;;
34924;SDS011;21130;51.728;8.748;2022-12-16T14:06:00;15.07;;;10.98;;
34924;SDS011;21130;51.728;8.748;2022-12-16T14:08:49;16.05;;;12.32;;
34924;SDS011;21130;51.728;8.748;2022-12-16T14:11:35;20.42;;;13.07;;
34924;SDS011;21130;51.728;8.748;2022-12-16T14:14:30;17.02;;;13.52;;
34924;SDS011;21130;51.728;8.748;2022-12-16T14:17:21;19.17;;;13.50;;
34924;SDS011;21130;51.728;8.748;2022-12-16T14:20:14;20.05;;;13.88;;
34924;SDS011;21130;51.728;8.748;2022-12-16T14:23:08;16.88;;;14.15;;
34924;SDS011;21130;51.728;8.748;2022-12-16T14:26:03;22.10;;;15.52;;
34924;SDS011;21130;51.728;8.748;2022-12-16T14:28:47;18.95;;;14.93;;
34924;SDS011;21130;51.728;8.748;2022-12-16T14:31:33;20.67;;;14.85;;
34924;SDS011;21130;51.728;8.748;2022-12-16T14:34:20;17.92;;;13.88;;
34924;SDS011;21130;51.728;8.748;2022-12-16T14:37:10;16.08;;;12.73;;
34924;SDS011;21130;51.728;8.748;2022-12-16T14:39:56;18.63;;;13.32;;
34924;SDS011;21130;51.728;8.748;2022-12-16T14:42:40;15.65;;;12.85;;
34924;SDS011;21130;51.728;8.748;2022-12-16T14:45:27;16.67;;;13.02;;
34924;SDS011;21130;51.728;8.748;2022-12-16T14:48:13;14.88;;;12.02;;
34924;SDS011;21130;51.728;8.748;2022-12-16T14:51:22;18.30;;;13.38;;
34924;SDS011;21130;51.728;8.748;2022-12-16T14:54:11;20.25;;;14.73;;
34924;SDS011;21130;51.728;8.748;2022-12-16T14:57:03;17.60;;;14.32;;
34924;SDS011;21130;51.728;8.748;2022-12-16T14:59:58;20.23;;;14.23;;
34924;SDS011;21130;51.728;8.748;2022-12-16T15:02:43;18.10;;;13.35;;
34924;SDS011;21130;51.728;8.748;2022-12-16T15:05:30;18.85;;;13.07;;
34924;SDS011;21130;51.728;8.748;2022-12-16T15:08:17;19.15;;;13.52;;
34924;SDS011;21130;51.728;8.748;2022-12-16T15:11:04;16.85;;;13.68;;
34924;SDS011;21130;51.728;8.748;2022-12-16T15:13:55;16.25;;;13.25;;
34924;SDS011;21130;51.728;8.748;2022-12-16T15:16:41;16.77;;;13.75;;
34924;SDS011;21130;51.728;8.748;2022-12-16T15:19:37;18.15;;;14.05;;
34924;SDS011;21130;51.728;8.748;2022-12-16T15:22:26;18.70;;;14.13;;
34924;SDS011;21130;51.728;8.748;2022-12-16T15:25:16;17.60;;;14.38;;
34924;SDS011;21130;51.728;8.748;2022-12-16T15:28:03;21.48;;;15.10;;
34924;SDS011;21130;51.728;8.748;2022-12-16T15:30:48;19.35;;;14.45;;
34924;SDS011;21130;51.728;8.748;2022-12-16T15:33:33;19.60;;;15.40;;
34924;SDS011;21130;51.728;8.748;2022-12-16T15:36:21;23.25;;;16.98;;
34924;SDS011;21130;51.728;8.748;2022-12-16T15:39:16;20.70;;;15.70;;
34924;SDS011;21130;51.728;8.748;2022-12-16T15:42:03;20.35;;;15.38;;
34924;SDS011;21130;51.728;8.748;2022-12-16T15:44:49;20.27;;;15.85;;
34924;SDS011;21130;51.728;8.748;2022-12-16T15:47:35;22.85;;;16.23;;
34924;SDS011;21130;51.728;8.748;2022-12-16T15:50:21;19.30;;;15.10;;
34924;SDS011;21130;51.728;8.748;2022-12-16T15:53:13;19.33;;;15.02;;
34924;SDS011;21130;51.728;8.748;2022-12-16T15:55:58;22.38;;;16.20;;
34924;SDS011;21130;51.728;8.748;2022-12-16T15:58:42;20.00;;;15.70;;
34924;SDS011;21130;51.728;8.748;2022-12-16T16:01:37;22.00;;;16.10;;
34924;SDS011;21130;51.728;8.748;2022-12-16T16:04:23;21.33;;;16.55;;
34924;SDS011;21130;51.728;8.748;2022-12-16T16:10:01;20.95;;;16.52;;
34924;SDS011;21130;51.728;8.748;2022-12-16T16:12:50;23.35;;;17.27;;
34924;SDS011;21130;51.728;8.748;2022-12-16T16:15:35;23.70;;;17.23;;
34924;SDS011;21130;51.728;8.748;2022-12-16T16:18:21;27.60;;;18.88;;
34924;SDS011;21130;51.728;8.748;2022-12-16T16:21:13;28.27;;;18.35;;
34924;SDS011;21130;51.728;8.748;2022-12-16T16:23:57;29.00;;;18.50;;
34924;SDS011;21130;51.728;8.748;2022-12-16T16:26:41;26.92;;;18.38;;
34924;SDS011;21130;51.728;8.748;2022-12-16T16:29:26;27.55;;;19.15;;
34924;SDS011;21130;51.728;8.748;2022-12-16T16:32:10;25.88;;;18.80;;